• Join FlightAware (Why Join?)
  • Login
  • US Flag 
06:37PM EDT


 

Airport Tracker/Info


-or-


 

Live Flight TrackerFlight Track Log ✈ ASQ4295 ✈ 12-Jun-2013 ✈ KIAH - KCMH

Flight Track Log - Related Links

Times and Time Zones

All times are in EDT time to prevent confusion due to time zone crossing. See the ASQ4295 flight status page for this flight to view local times or setup timezone preferences in your user account.

Time Position Orientation Groundspeed Altitude Reporting Facility
EDT Latitude Longitude Course Direction KTS MPH feet Rate Location/Type
02:22PM 29.9575 -95.3442 41° Northeast 159 183 700  Level Houston Center
02:23PM 29.9253 -95.3817 225° Southwest 204 235 2,600 1,320 Climbing Houston Center
02:24PM 29.9317 -95.3886 317° Northwest 213 245 2,700 1,260 Climbing Houston Center
02:24PM 29.9842 -95.3819 North 274 315 3,800 1,200 Climbing Houston Center
02:25PM 30.2866 -95.2062 14° North  Level FlightAware Approximate
02:25PM 29.9986 -95.3756 21° North 247 284 4,000  Level Houston Center
02:25PM 30.0500 -95.3450 27° Northeast 269 310 5,600 1,800 Climbing Houston Center
02:26PM 30.3902 -95.1716 23° Northeast  Level FlightAware Approximate
02:26PM 30.0644 -95.3325 37° Northeast 271 312 5,900  Level Houston Center
02:26PM 30.1081 -95.2897 40° Northeast 285 328 7,300 1,920 Climbing Houston Center
02:27PM 30.4876 -95.1175 27° Northeast  Level FlightAware Approximate
02:27PM 30.1256 -95.2731 39° Northeast 287 330 7,900  Level Houston Center
02:28PM 30.5841 -95.0659 41° Northeast  Level FlightAware Approximate
02:28PM 30.2164 -95.2294 23° Northeast 306 352 10,100  Level Houston Center
02:29PM 30.2983 -95.2053 14° North 306 352 11,100 960 Climbing Houston Center
02:30PM 30.3914 -95.1781 14° North 340 391 12,100 1,260 Climbing Houston Center
02:31PM 30.4864 -95.1392 19° North 346 398 13,700 1,500 Climbing Houston Center
02:32PM 30.5694 -95.0872 28° Northeast 339 390 15,200 1,440 Climbing Houston Center
02:33PM 30.6511 -95.0367 28° Northeast 334 384 16,700 1,200 Climbing Houston Center
02:34PM 30.7508 -94.9744 28° Northeast 338 389 17,800 960 Climbing Houston Center
02:35PM 30.8372 -94.9208 28° Northeast 350 403 18,800 900 Climbing Houston Center
02:36PM 30.9253 -94.8661 28° Northeast 359 413 19,700 840 Climbing Houston Center
02:37PM 31.0097 -94.8133 28° Northeast 365 420 20,600 960 Climbing Houston Center
02:38PM 31.1181 -94.7450 28° Northeast 373 429 21,700 960 Climbing Houston Center
02:39PM 31.2092 -94.6853 29° Northeast 374 430 22,600 900 Climbing Houston Center
02:40PM 31.2989 -94.6250 30° Northeast 373 429 23,600 900 Climbing Houston Center
02:41PM 31.3903 -94.5614 31° Northeast 375 432 24,500 840 Climbing Houston Center
02:42PM 31.4744 -94.4897 36° Northeast 375 432 25,400 900 Climbing Houston Center
02:43PM 31.5558 -94.4122 39° Northeast 376 433 26,400 960 Climbing Houston Center
02:44PM 31.6536 -94.3200 39° Northeast 375 432 27,500 960 Climbing Houston Center
02:45PM 31.7375 -94.2425 38° Northeast 382 440 28,400 840 Climbing Houston Center
02:46PM 31.8172 -94.1650 40° Northeast 379 436 29,300 720 Climbing Houston Center
02:48PM 31.9003 -94.0856 39° Northeast 383 441 30,000 420 Climbing Houston Center
02:48PM 31.9550 -94.0319 40° Northeast 381 438 30,000 480 Level Fort Worth Center
02:49PM 32.0447 -93.9503 38° Northeast 391 450 30,800 900 Climbing Fort Worth Center
02:50PM 32.1319 -93.8636 40° Northeast 396 456 31,800 1,200 Climbing Fort Worth Center
02:51PM 32.2275 -93.7692 40° Northeast 401 461 33,300 1,380 Climbing Fort Worth Center
02:52PM 32.3106 -93.6869 40° Northeast 396 456 34,600 1,260 Climbing Fort Worth Center
02:53PM 32.3897 -93.6125 38° Northeast 379 436 35,900 1,140 Climbing Fort Worth Center
02:54PM 32.4669 -93.5378 39° Northeast 365 420 36,900 540 Climbing Fort Worth Center
02:55PM 32.5419 -93.4656 39° Northeast 354 407 37,000  Climbing Fort Worth Center
02:56PM 32.6228 -93.3881 39° Northeast 354 407 37,000  Level Fort Worth Center
02:57PM 32.7078 -93.3053 39° Northeast 371 427 37,000  Level Fort Worth Center
02:58PM 32.7928 -93.2222 39° Northeast 383 441 37,000  Level Fort Worth Center
02:59PM 32.8817 -93.1364 39° Northeast 396 456 37,000  Level Fort Worth Center
03:00PM 32.9728 -93.0481 39° Northeast 406 467 37,000  Level Fort Worth Center
03:01PM 33.0633 -92.9594 39° Northeast 418 481 37,000  Level Fort Worth Center
03:02PM 33.1561 -92.8678 40° Northeast 423 487 37,000  Level Fort Worth Center
03:04PM 33.3286 -92.6992 39° Northeast 435 501 37,000  Level Memphis Center
03:05PM 33.4219 -92.6072 39° Northeast 435 501 37,000  Level Memphis Center
03:06PM 33.5114 -92.5172 40° Northeast 428 493 37,000  Level Memphis Center
03:07PM 33.6025 -92.4247 40° Northeast 428 493 37,000  Level Memphis Center
03:08PM 33.6958 -92.3347 39° Northeast 423 487 37,000  Level Memphis Center
03:09PM 33.7850 -92.2442 40° Northeast 423 487 37,000  Level Memphis Center
03:10PM 33.8803 -92.1536 38° Northeast 423 487 37,000  Level Memphis Center
03:11PM 33.9714 -92.0578 41° Northeast 428 493 37,000  Level Memphis Center
03:12PM 34.0622 -91.9669 40° Northeast 428 493 37,000  Level Memphis Center
03:13PM 34.1511 -91.8706 42° Northeast 423 487 37,000  Level Memphis Center
03:14PM 34.2419 -91.7767 41° Northeast 417 480 37,000  Level Memphis Center
03:15PM 34.3306 -91.6878 40° Northeast 417 480 37,000  Level Memphis Center
03:16PM 34.4317 -91.5836 40° Northeast 423 487 37,000  Level Memphis Center
03:17PM 34.5225 -91.4889 41° Northeast 429 494 37,000  Level Memphis Center
03:18PM 34.6150 -91.3969 39° Northeast 436 502 37,000  Level Memphis Center
03:19PM 34.7097 -91.2994 40° Northeast 431 496 37,000  Level Memphis Center
03:20PM 34.8000 -91.2044 41° Northeast 431 496 37,000  Level Memphis Center
03:21PM 34.8967 -91.1092 39° Northeast 439 505 37,000  Level Memphis Center
03:22PM 34.9889 -91.0111 41° Northeast 439 505 37,000  Level Memphis Center
03:23PM 35.0728 -90.9228 41° Northeast 439 505 37,000  Level Memphis Center
03:24PM 35.1672 -90.8244 40° Northeast 439 505 37,000  Level Memphis Center
03:25PM 35.2592 -90.7233 42° Northeast 434 499 37,000  Level Memphis Center
03:26PM 35.3533 -90.6244 41° Northeast 444 511 37,000  Level Memphis Center
03:27PM 35.4475 -90.5253 41° Northeast 439 505 37,000  Level Memphis Center
03:28PM 35.5497 -90.4158 41° Northeast 444 511 37,000  Level Memphis Center
03:29PM 35.6436 -90.3161 41° Northeast 444 511 37,000  Level Memphis Center
03:30PM 35.7228 -90.2242 43° Northeast 437 503 37,000  Level Memphis Center
03:31PM 35.8186 -90.1214 41° Northeast 437 503 37,000  Level Memphis Center
03:32PM 35.9122 -90.0239 40° Northeast 437 503 37,000  Level Memphis Center
03:33PM 36.0036 -89.9233 42° Northeast 437 503 37,000  Level Memphis Center
03:34PM 36.0992 -89.8228 40° Northeast 437 503 37,000  Level Memphis Center
03:35PM 36.1925 -89.7217 41° Northeast 437 503 37,000  Level Memphis Center
03:36PM 36.2814 -89.6258 41° Northeast 437 503 37,000  Level Memphis Center
03:37PM 36.3789 -89.5244 40° Northeast 437 503 37,000  Level Memphis Center
03:38PM 36.4761 -89.4150 42° Northeast 449 517 37,000  Level Memphis Center
03:39PM 36.5814 -89.3000 41° Northeast 457 526 37,000  Level Memphis Center
03:40PM 36.6556 -89.2164 42° Northeast 457 526 37,000  Level Memphis Center
03:41PM 36.7650 -89.0931 42° Northeast 452 520 37,000  Level Memphis Center
03:42PM 36.8575 -88.9906 42° Northeast 446 513 37,000  Level Memphis Center
03:43PM 36.9294 -88.9036 44° Northeast 446 513 37,000  Level Memphis Center
03:44PM 37.0406 -88.7847 40° Northeast 439 505 37,000  Level Memphis Center
03:45PM 37.1331 -88.6814 42° Northeast 439 505 37,000  Level Memphis Center
03:46PM 37.2275 -88.5778 41° Northeast 439 505 37,000  Level Memphis Center
03:47PM 37.3197 -88.4714 43° Northeast 439 505 37,000  Level Memphis Center
03:48PM 37.4089 -88.3608 45° Northeast 450 518 37,000  Level Indianapolis Center
03:49PM 37.5092 -88.2464 42° Northeast 457 526 37,000  Level Indianapolis Center
03:50PM 37.5983 -88.1433 42° Northeast 454 522 37,000  Level Indianapolis Center
03:51PM 37.6806 -88.0150 51° Northeast 469 540 37,000  Level Indianapolis Center
03:52PM 37.7519 -87.8469 62° Northeast 465 535 37,000  Level Indianapolis Center
03:53PM 37.8044 -87.7247 61° Northeast 463 533 37,000  Level Indianapolis Center
03:54PM 37.8750 -87.5550 62° Northeast 455 524 37,000  Level Indianapolis Center
03:55PM 37.9328 -87.4172 62° Northeast 448 516 37,000 -60 Level Indianapolis Center
03:56PM 37.9889 -87.2811 62° Northeast 439 505 36,900 -540 Descending Indianapolis Center
03:57PM 38.0458 -87.1431 62° Northeast 441 507 36,000 -1,020 Descending Indianapolis Center
03:58PM 38.1053 -86.9992 62° Northeast 461 531 34,900 -1,020 Descending Indianapolis Center
03:59PM 38.1742 -86.8294 63° Northeast 458 527 34,000 -480 Descending Indianapolis Center
04:01PM 38.2331 -86.6889 62° Northeast 456 525 34,000  Level Indianapolis Center
04:02PM 38.2917 -86.5447 63° Northeast 459 528 34,000 -60 Level Indianapolis Center
04:03PM 38.3508 -86.3981 63° Northeast 464 534 33,900 -600 Descending Indianapolis Center
04:04PM 38.4078 -86.2564 63° Northeast 454 522 32,800 -1,140 Descending Indianapolis Center
04:05PM 38.4661 -86.1125 63° Northeast 455 524 31,600 -1,380 Descending Indianapolis Center
04:06PM 38.5378 -85.9344 63° Northeast 467 537 30,000 -1,260 Descending Indianapolis Center
04:07PM 38.5956 -85.7853 64° Northeast 467 537 29,000 -540 Descending Indianapolis Center
04:08PM 38.6525 -85.6408 63° Northeast 461 531 29,000  Level Indianapolis Center
04:09PM 38.7111 -85.4944 63° Northeast 463 533 29,000 -300 Level Indianapolis Center
04:10PM 38.7686 -85.3450 64° Northeast 469 540 28,400 -780 Descending Indianapolis Center
04:11PM 38.8275 -85.1942 63° Northeast 475 547 27,400 -1,200 Descending Indianapolis Center
04:12PM 38.8989 -85.0111 63° Northeast 480 552 26,000 -1,260 Descending Indianapolis Center
04:13PM 38.9542 -84.8669 64° Northeast 485 558 24,900 -1,020 Descending Indianapolis Center
04:14PM 39.0119 -84.7150 64° Northeast 473 544 24,000 -540 Descending Indianapolis Center
04:15PM 39.0942 -84.5622 55° Northeast 444 511 23,800 -780 Descending Indianapolis Center
04:16PM 39.1694 -84.4269 54° Northeast 457 526 22,400 -1,380 Descending Indianapolis Center
04:17PM 39.2458 -84.2886 54° Northeast 468 539 21,000 -1,320 Descending Indianapolis Center
04:18PM 39.3156 -84.1478 57° Northeast 463 533 19,700 -1,020 Descending Indianapolis Center
04:19PM 39.3703 -84.0014 64° Northeast 452 520 18,900 -960 Descending Indianapolis Center
04:20PM 39.4244 -83.8600 64° Northeast 439 505 17,700 -2,100 Descending Indianapolis Center
04:21PM 39.4864 -83.6967 64° Northeast 432 497 14,600 -2,940 Descending Indianapolis Center
04:22PM 39.5272 -83.5944 63° Northeast 412 474 12,400 -2,160 Descending Indianapolis Center
04:23PM 39.5689 -83.4806 65° Northeast 384 442 11,000 -1,200 Descending Indianapolis Center
04:23PM 39.5828 -83.4414 65° Northeast 384 442 10,900 -720 Descending Indianapolis Center
04:24PM 39.6256 -83.3656 54° Northeast 374 430 10,300 -900 Descending Indianapolis Center
04:24PM 39.6439 -83.3322 54° Northeast 376 433 10,000 -300 Descending Indianapolis Center
04:25PM 39.6872 -83.2619 51° Northeast 365 420 10,000 -120 Level Indianapolis Center
04:25PM 39.7056 -83.2319 52° Northeast 362 417 9,900  Descending Indianapolis Center
04:26PM 39.7486 -83.1633 51° Northeast 349 402 10,000  Climbing Indianapolis Center
04:26PM 39.7669 -83.1283 56° Northeast 361 415 9,900 -120 Descending Indianapolis Center
04:27PM 39.7989 -83.0417 64° Northeast 351 404 9,900 -120 Level Indianapolis Center
04:27PM 39.8069 -82.9961 77° East 331 381 9,800 -840 Descending Indianapolis Center
04:28PM 39.8186 -82.9356 76° East 295 339 9,100 -1,260 Descending Indianapolis Center
04:28PM 39.8289 -82.8906 73° East 305 351 8,500 -1,500 Descending Indianapolis Center
04:29PM 39.8403 -82.8319 76° East 293 337 7,600 -1,680 Descending Indianapolis Center
04:29PM 39.8517 -82.7867 72° East 296 341 6,800 -1,500 Descending Indianapolis Center
04:30PM 39.8639 -82.7314 74° East 287 330 6,100 -1,560 Descending Indianapolis Center
04:31PM 39.8811 -82.6964 57° Northeast 273 314 5,200 -1,920 Descending Indianapolis Center
04:31PM 39.9164 -82.6639 35° Northeast 247 284 4,200 -1,500 Descending Indianapolis Center
04:32PM 39.9381 -82.6439 35° Northeast 252 290 3,700 -1,140 Descending Indianapolis Center
04:32PM 39.9728 -82.6347 11° North 217 250 3,100 -780 Descending Indianapolis Center
04:33PM 39.9864 -82.6575 308° West 232 267 2,900 -120 Descending Indianapolis Center
04:33PM 39.9917 -82.6967 280° West 180 207 3,000 -120 Climbing Indianapolis Center
04:34PM 39.9936 -82.7378 274° West 200 230 2,800 -600 Descending Indianapolis Center
04:34PM 39.9950 -82.7706 273° West 199 229 2,400 -900 Descending Indianapolis Center